sensor_id;sensor_type;location;lat;lon;timestamp;P1;durP1;ratioP1;P2;durP2;ratioP2
54881;SDS011;40775;51.448;4.742;2022-09-23T00:01:19;3.25;;;1.80;;
54881;SDS011;40775;51.448;4.742;2022-09-23T00:03:47;3.25;;;1.95;;
54881;SDS011;40775;51.448;4.742;2022-09-23T00:06:18;3.35;;;1.80;;
54881;SDS011;40775;51.448;4.742;2022-09-23T00:08:48;3.40;;;2.20;;
54881;SDS011;40775;51.448;4.742;2022-09-23T00:11:17;3.47;;;1.80;;
54881;SDS011;40775;51.448;4.742;2022-09-23T00:13:53;4.03;;;2.20;;
54881;SDS011;40775;51.448;4.742;2022-09-23T00:16:25;3.30;;;1.90;;
54881;SDS011;40775;51.448;4.742;2022-09-23T00:19:00;3.73;;;1.80;;
54881;SDS011;40775;51.448;4.742;2022-09-23T00:21:28;3.55;;;1.70;;
54881;SDS011;40775;51.448;4.742;2022-09-23T00:23:55;4.60;;;2.17;;
54881;SDS011;40775;51.448;4.742;2022-09-23T00:26:23;5.13;;;2.22;;
54881;SDS011;40775;51.448;4.742;2022-09-23T00:28:50;3.85;;;1.90;;
54881;SDS011;40775;51.448;4.742;2022-09-23T00:31:19;2.90;;;1.70;;
54881;SDS011;40775;51.448;4.742;2022-09-23T00:33:53;4.95;;;2.10;;
54881;SDS011;40775;51.448;4.742;2022-09-23T00:36:23;3.35;;;1.90;;
54881;SDS011;40775;51.448;4.742;2022-09-23T00:38:51;3.15;;;2.05;;
54881;SDS011;40775;51.448;4.742;2022-09-23T00:41:19;2.88;;;1.80;;
54881;SDS011;40775;51.448;4.742;2022-09-23T00:43:51;3.05;;;1.73;;
54881;SDS011;40775;51.448;4.742;2022-09-23T00:46:31;4.57;;;2.17;;
54881;SDS011;40775;51.448;4.742;2022-09-23T00:49:04;3.70;;;1.95;;
54881;SDS011;40775;51.448;4.742;2022-09-23T00:51:52;3.80;;;2.03;;
54881;SDS011;40775;51.448;4.742;2022-09-23T00:54:24;3.88;;;1.90;;
54881;SDS011;40775;51.448;4.742;2022-09-23T00:56:53;3.47;;;1.70;;
54881;SDS011;40775;51.448;4.742;2022-09-23T00:59:21;3.00;;;1.70;;
54881;SDS011;40775;51.448;4.742;2022-09-23T01:01:50;4.90;;;2.00;;
54881;SDS011;40775;51.448;4.742;2022-09-23T01:04:23;3.28;;;1.73;;
54881;SDS011;40775;51.448;4.742;2022-09-23T01:06:52;3.67;;;2.00;;
54881;SDS011;40775;51.448;4.742;2022-09-23T01:09:19;3.70;;;1.90;;
54881;SDS011;40775;51.448;4.742;2022-09-23T01:17:38;2.97;;;1.60;;
54881;SDS011;40775;51.448;4.742;2022-09-23T01:38:37;2.80;;;1.60;;
54881;SDS011;40775;51.448;4.742;2022-09-23T01:44:11;4.18;;;1.83;;
54881;SDS011;40775;51.448;4.742;2022-09-23T01:46:50;2.88;;;1.80;;
54881;SDS011;40775;51.448;4.742;2022-09-23T01:49:32;3.05;;;1.73;;
54881;SDS011;40775;51.448;4.742;2022-09-23T01:52:15;3.55;;;1.80;;
54881;SDS011;40775;51.448;4.742;2022-09-23T01:55:12;3.20;;;1.70;;
54881;SDS011;40775;51.448;4.742;2022-09-23T01:57:54;2.88;;;1.73;;
54881;SDS011;40775;51.448;4.742;2022-09-23T02:00:40;3.25;;;1.50;;
54881;SDS011;40775;51.448;4.742;2022-09-23T02:03:30;3.50;;;1.80;;
54881;SDS011;40775;51.448;4.742;2022-09-23T02:06:31;3.80;;;2.17;;
54881;SDS011;40775;51.448;4.742;2022-09-23T02:09:09;3.88;;;1.75;;
54881;SDS011;40775;51.448;4.742;2022-09-23T02:11:42;4.93;;;1.90;;
54881;SDS011;40775;51.448;4.742;2022-09-23T02:14:33;3.55;;;1.70;;
54881;SDS011;40775;51.448;4.742;2022-09-23T02:17:08;2.92;;;1.77;;
54881;SDS011;40775;51.448;4.742;2022-09-23T02:19:51;4.13;;;2.10;;
54881;SDS011;40775;51.448;4.742;2022-09-23T02:23:25;3.30;;;1.90;;
54881;SDS011;40775;51.448;4.742;2022-09-23T02:25:26;3.25;;;1.52;;
54881;SDS011;40775;51.448;4.742;2022-09-23T02:28:15;4.20;;;2.10;;
54881;SDS011;40775;51.448;4.742;2022-09-23T02:30:48;3.08;;;1.90;;
54881;SDS011;40775;51.448;4.742;2022-09-23T02:33:34;3.67;;;1.70;;
54881;SDS011;40775;51.448;4.742;2022-09-23T02:36:14;2.50;;;1.60;;
54881;SDS011;40775;51.448;4.742;2022-09-23T02:39:14;4.75;;;1.92;;
54881;SDS011;40775;51.448;4.742;2022-09-23T02:41:47;3.53;;;2.03;;
54881;SDS011;40775;51.448;4.742;2022-09-23T02:44:27;4.30;;;2.08;;
54881;SDS011;40775;51.448;4.742;2022-09-23T02:46:54;3.92;;;1.98;;
54881;SDS011;40775;51.448;4.742;2022-09-23T02:51:59;4.40;;;2.00;;
54881;SDS011;40775;51.448;4.742;2022-09-23T02:54:30;4.30;;;2.10;;
54881;SDS011;40775;51.448;4.742;2022-09-23T02:56:59;4.15;;;2.38;;
54881;SDS011;40775;51.448;4.742;2022-09-23T02:59:28;4.00;;;1.92;;
54881;SDS011;40775;51.448;4.742;2022-09-23T03:05:20;3.92;;;2.28;;
54881;SDS011;40775;51.448;4.742;2022-09-23T03:11:04;3.17;;;1.90;;
54881;SDS011;40775;51.448;4.742;2022-09-23T03:22:26;5.45;;;2.10;;
54881;SDS011;40775;51.448;4.742;2022-09-23T03:25:06;3.15;;;1.85;;
54881;SDS011;40775;51.448;4.742;2022-09-23T03:27:40;3.40;;;2.00;;
54881;SDS011;40775;51.448;4.742;2022-09-23T03:30:09;3.55;;;1.90;;
54881;SDS011;40775;51.448;4.742;2022-09-23T03:32:38;4.38;;;1.92;;
54881;SDS011;40775;51.448;4.742;2022-09-23T03:35:09;4.07;;;1.83;;
54881;SDS011;40775;51.448;4.742;2022-09-23T03:37:42;3.58;;;1.85;;
54881;SDS011;40775;51.448;4.742;2022-09-23T03:40:28;4.15;;;2.00;;
54881;SDS011;40775;51.448;4.742;2022-09-23T03:43:05;3.97;;;2.13;;
54881;SDS011;40775;51.448;4.742;2022-09-23T03:45:33;3.57;;;1.87;;
54881;SDS011;40775;51.448;4.742;2022-09-23T03:48:01;4.15;;;1.92;;
54881;SDS011;40775;51.448;4.742;2022-09-23T03:50:29;3.83;;;1.83;;
54881;SDS011;40775;51.448;4.742;2022-09-23T03:52:56;3.00;;;1.65;;
54881;SDS011;40775;51.448;4.742;2022-09-23T03:55:24;7.85;;;1.95;;
54881;SDS011;40775;51.448;4.742;2022-09-23T03:57:51;3.63;;;1.80;;
54881;SDS011;40775;51.448;4.742;2022-09-23T04:00:18;3.72;;;1.90;;
54881;SDS011;40775;51.448;4.742;2022-09-23T04:02:45;3.33;;;1.85;;
54881;SDS011;40775;51.448;4.742;2022-09-23T04:05:13;3.20;;;1.80;;
54881;SDS011;40775;51.448;4.742;2022-09-23T04:07:40;4.28;;;2.20;;
54881;SDS011;40775;51.448;4.742;2022-09-23T04:10:08;3.13;;;1.80;;
54881;SDS011;40775;51.448;4.742;2022-09-23T04:12:36;4.38;;;2.17;;
54881;SDS011;40775;51.448;4.742;2022-09-23T04:15:03;3.08;;;1.83;;
54881;SDS011;40775;51.448;4.742;2022-09-23T04:17:31;3.45;;;1.83;;
54881;SDS011;40775;51.448;4.742;2022-09-23T04:19:58;5.00;;;1.77;;
54881;SDS011;40775;51.448;4.742;2022-09-23T04:22:26;3.97;;;2.00;;
54881;SDS011;40775;51.448;4.742;2022-09-23T04:24:53;4.05;;;1.70;;
54881;SDS011;40775;51.448;4.742;2022-09-23T04:27:20;3.13;;;1.77;;
54881;SDS011;40775;51.448;4.742;2022-09-23T04:29:47;3.33;;;1.90;;
54881;SDS011;40775;51.448;4.742;2022-09-23T04:32:14;3.08;;;1.55;;
54881;SDS011;40775;51.448;4.742;2022-09-23T04:34:41;5.50;;;2.00;;
54881;SDS011;40775;51.448;4.742;2022-09-23T04:37:08;2.67;;;1.70;;
54881;SDS011;40775;51.448;4.742;2022-09-23T04:39:35;4.60;;;2.30;;
54881;SDS011;40775;51.448;4.742;2022-09-23T04:42:02;5.95;;;1.90;;
54881;SDS011;40775;51.448;4.742;2022-09-23T04:44:30;3.50;;;1.80;;
54881;SDS011;40775;51.448;4.742;2022-09-23T04:46:57;2.90;;;1.70;;
54881;SDS011;40775;51.448;4.742;2022-09-23T04:49:24;3.83;;;1.98;;
54881;SDS011;40775;51.448;4.742;2022-09-23T04:51:51;4.38;;;2.15;;
54881;SDS011;40775;51.448;4.742;2022-09-23T04:54:19;4.75;;;2.00;;
54881;SDS011;40775;51.448;4.742;2022-09-23T04:56:46;4.68;;;2.17;;
54881;SDS011;40775;51.448;4.742;2022-09-23T04:59:13;3.55;;;2.00;;
54881;SDS011;40775;51.448;4.742;2022-09-23T05:01:40;4.23;;;2.13;;
54881;SDS011;40775;51.448;4.742;2022-09-23T05:04:09;4.30;;;2.28;;
54881;SDS011;40775;51.448;4.742;2022-09-23T05:06:39;4.05;;;1.90;;
54881;SDS011;40775;51.448;4.742;2022-09-23T05:09:13;5.70;;;2.70;;
54881;SDS011;40775;51.448;4.742;2022-09-23T05:11:43;6.53;;;2.40;;
54881;SDS011;40775;51.448;4.742;2022-09-23T05:14:11;4.80;;;2.42;;
54881;SDS011;40775;51.448;4.742;2022-09-23T05:16:38;4.05;;;2.40;;
54881;SDS011;40775;51.448;4.742;2022-09-23T05:19:06;3.35;;;1.92;;
54881;SDS011;40775;51.448;4.742;2022-09-23T05:21:33;6.07;;;2.38;;
54881;SDS011;40775;51.448;4.742;2022-09-23T05:24:02;4.70;;;2.58;;
54881;SDS011;40775;51.448;4.742;2022-09-23T05:26:30;4.00;;;2.40;;
54881;SDS011;40775;51.448;4.742;2022-09-23T05:28:58;4.07;;;2.35;;
54881;SDS011;40775;51.448;4.742;2022-09-23T05:31:26;6.13;;;2.43;;
54881;SDS011;40775;51.448;4.742;2022-09-23T05:33:56;4.47;;;2.42;;
54881;SDS011;40775;51.448;4.742;2022-09-23T05:36:27;4.57;;;2.35;;
54881;SDS011;40775;51.448;4.742;2022-09-23T05:39:03;5.57;;;2.80;;
54881;SDS011;40775;51.448;4.742;2022-09-23T05:41:31;5.63;;;2.42;;
54881;SDS011;40775;51.448;4.742;2022-09-23T05:43:59;4.82;;;2.42;;
54881;SDS011;40775;51.448;4.742;2022-09-23T05:46:27;4.97;;;2.80;;
54881;SDS011;40775;51.448;4.742;2022-09-23T05:48:57;4.95;;;2.78;;
54881;SDS011;40775;51.448;4.742;2022-09-23T05:51:29;4.85;;;2.53;;
54881;SDS011;40775;51.448;4.742;2022-09-23T05:53:58;6.00;;;2.55;;
54881;SDS011;40775;51.448;4.742;2022-09-23T05:56:30;4.40;;;2.60;;
54881;SDS011;40775;51.448;4.742;2022-09-23T05:58:59;5.07;;;2.42;;
54881;SDS011;40775;51.448;4.742;2022-09-23T06:01:28;6.80;;;3.10;;
54881;SDS011;40775;51.448;4.742;2022-09-23T06:04:01;4.45;;;2.40;;
54881;SDS011;40775;51.448;4.742;2022-09-23T06:06:35;4.97;;;2.78;;
54881;SDS011;40775;51.448;4.742;2022-09-23T06:09:05;5.75;;;2.60;;
54881;SDS011;40775;51.448;4.742;2022-09-23T06:11:36;5.43;;;2.45;;
54881;SDS011;40775;51.448;4.742;2022-09-23T06:14:03;6.80;;;2.42;;
54881;SDS011;40775;51.448;4.742;2022-09-23T06:16:32;5.53;;;2.78;;
54881;SDS011;40775;51.448;4.742;2022-09-23T06:19:00;5.05;;;2.92;;
54881;SDS011;40775;51.448;4.742;2022-09-23T06:21:33;6.03;;;2.97;;
54881;SDS011;40775;51.448;4.742;2022-09-23T06:24:03;3.92;;;2.35;;
54881;SDS011;40775;51.448;4.742;2022-09-23T06:26:32;5.75;;;2.95;;
54881;SDS011;40775;51.448;4.742;2022-09-23T06:29:00;6.47;;;3.00;;
54881;SDS011;40775;51.448;4.742;2022-09-23T06:31:29;6.93;;;3.10;;
54881;SDS011;40775;51.448;4.742;2022-09-23T06:33:57;5.40;;;2.83;;
54881;SDS011;40775;51.448;4.742;2022-09-23T06:36:35;5.68;;;3.17;;
54881;SDS011;40775;51.448;4.742;2022-09-23T06:39:10;6.13;;;2.83;;
54881;SDS011;40775;51.448;4.742;2022-09-23T06:41:38;6.28;;;3.15;;
54881;SDS011;40775;51.448;4.742;2022-09-23T06:44:06;5.87;;;2.97;;
54881;SDS011;40775;51.448;4.742;2022-09-23T06:46:33;5.38;;;2.90;;
54881;SDS011;40775;51.448;4.742;2022-09-23T06:49:05;6.18;;;3.10;;
54881;SDS011;40775;51.448;4.742;2022-09-23T06:51:32;6.50;;;2.92;;
54881;SDS011;40775;51.448;4.742;2022-09-23T06:53:59;5.28;;;2.72;;
54881;SDS011;40775;51.448;4.742;2022-09-23T06:56:27;5.55;;;2.72;;
54881;SDS011;40775;51.448;4.742;2022-09-23T06:59:00;6.70;;;3.83;;
54881;SDS011;40775;51.448;4.742;2022-09-23T07:01:27;4.03;;;2.30;;
54881;SDS011;40775;51.448;4.742;2022-09-23T07:03:54;5.97;;;2.70;;
54881;SDS011;40775;51.448;4.742;2022-09-23T07:06:21;7.50;;;2.88;;
54881;SDS011;40775;51.448;4.742;2022-09-23T07:08:48;4.68;;;2.30;;
54881;SDS011;40775;51.448;4.742;2022-09-23T07:11:16;4.90;;;2.75;;
54881;SDS011;40775;51.448;4.742;2022-09-23T07:13:47;6.03;;;2.90;;
54881;SDS011;40775;51.448;4.742;2022-09-23T07:16:16;4.30;;;2.17;;
54881;SDS011;40775;51.448;4.742;2022-09-23T07:18:43;5.57;;;2.88;;
54881;SDS011;40775;51.448;4.742;2022-09-23T07:21:11;5.20;;;2.50;;
54881;SDS011;40775;51.448;4.742;2022-09-23T07:23:42;6.07;;;2.85;;
54881;SDS011;40775;51.448;4.742;2022-09-23T07:26:12;4.47;;;2.17;;
54881;SDS011;40775;51.448;4.742;2022-09-23T07:28:41;5.07;;;2.72;;
54881;SDS011;40775;51.448;4.742;2022-09-23T07:31:09;12.35;;;2.95;;
54881;SDS011;40775;51.448;4.742;2022-09-23T07:33:54;7.75;;;2.33;;
54881;SDS011;40775;51.448;4.742;2022-09-23T07:36:24;8.05;;;2.70;;
54881;SDS011;40775;51.448;4.742;2022-09-23T07:38:53;7.25;;;2.13;;
54881;SDS011;40775;51.448;4.742;2022-09-23T07:41:25;7.68;;;2.72;;
54881;SDS011;40775;51.448;4.742;2022-09-23T07:43:55;9.67;;;2.63;;
54881;SDS011;40775;51.448;4.742;2022-09-23T07:46:25;5.75;;;2.42;;
54881;SDS011;40775;51.448;4.742;2022-09-23T07:48:56;7.38;;;2.63;;
54881;SDS011;40775;51.448;4.742;2022-09-23T07:51:25;5.47;;;2.67;;
54881;SDS011;40775;51.448;4.742;2022-09-23T07:54:01;8.85;;;2.60;;
54881;SDS011;40775;51.448;4.742;2022-09-23T07:56:33;5.50;;;2.65;;
54881;SDS011;40775;51.448;4.742;2022-09-23T07:59:01;6.72;;;2.22;;
54881;SDS011;40775;51.448;4.742;2022-09-23T08:01:33;7.68;;;2.22;;
54881;SDS011;40775;51.448;4.742;2022-09-23T08:04:13;7.60;;;2.53;;
54881;SDS011;40775;51.448;4.742;2022-09-23T08:06:47;6.27;;;2.20;;
54881;SDS011;40775;51.448;4.742;2022-09-23T08:09:22;7.60;;;2.25;;
54881;SDS011;40775;51.448;4.742;2022-09-23T08:11:52;6.07;;;2.57;;
54881;SDS011;40775;51.448;4.742;2022-09-23T08:14:20;6.38;;;2.10;;
54881;SDS011;40775;51.448;4.742;2022-09-23T08:16:50;6.95;;;2.10;;
54881;SDS011;40775;51.448;4.742;2022-09-23T08:19:17;7.60;;;2.60;;
54881;SDS011;40775;51.448;4.742;2022-09-23T08:21:45;5.72;;;2.17;;
54881;SDS011;40775;51.448;4.742;2022-09-23T08:24:16;5.77;;;2.40;;
54881;SDS011;40775;51.448;4.742;2022-09-23T08:26:46;5.50;;;2.55;;
54881;SDS011;40775;51.448;4.742;2022-09-23T08:29:15;4.97;;;2.33;;
54881;SDS011;40775;51.448;4.742;2022-09-23T08:31:43;6.75;;;2.42;;
54881;SDS011;40775;51.448;4.742;2022-09-23T08:34:10;5.43;;;2.30;;
54881;SDS011;40775;51.448;4.742;2022-09-23T08:36:38;5.40;;;2.20;;
54881;SDS011;40775;51.448;4.742;2022-09-23T08:39:05;9.85;;;2.53;;
54881;SDS011;40775;51.448;4.742;2022-09-23T08:44:24;9.67;;;2.57;;
54881;SDS011;40775;51.448;4.742;2022-09-23T08:50:07;7.45;;;2.47;;
54881;SDS011;40775;51.448;4.742;2022-09-23T08:52:44;6.80;;;2.20;;
54881;SDS011;40775;51.448;4.742;2022-09-23T08:55:22;6.18;;;2.40;;
54881;SDS011;40775;51.448;4.742;2022-09-23T08:58:06;3.53;;;2.03;;
54881;SDS011;40775;51.448;4.742;2022-09-23T09:06:45;6.88;;;2.35;;
54881;SDS011;40775;51.448;4.742;2022-09-23T09:15:18;6.35;;;2.03;;
54881;SDS011;40775;51.448;4.742;2022-09-23T09:23:38;8.17;;;2.53;;
54881;SDS011;40775;51.448;4.742;2022-09-23T09:28:52;6.63;;;2.17;;
54881;SDS011;40775;51.448;4.742;2022-09-23T09:31:46;7.40;;;2.73;;
54881;SDS011;40775;51.448;4.742;2022-09-23T09:37:33;4.60;;;2.10;;
54881;SDS011;40775;51.448;4.742;2022-09-23T09:40:18;8.73;;;2.38;;
54881;SDS011;40775;51.448;4.742;2022-09-23T09:42:47;5.97;;;2.30;;
54881;SDS011;40775;51.448;4.742;2022-09-23T09:48:16;9.45;;;2.50;;
54881;SDS011;40775;51.448;4.742;2022-09-23T09:50:53;7.40;;;2.67;;
54881;SDS011;40775;51.448;4.742;2022-09-23T09:56:06;7.55;;;2.47;;
54881;SDS011;40775;51.448;4.742;2022-09-23T09:58:46;6.32;;;2.38;;
54881;SDS011;40775;51.448;4.742;2022-09-23T10:07:34;4.85;;;1.98;;
54881;SDS011;40775;51.448;4.742;2022-09-23T10:09:57;5.43;;;2.10;;
54881;SDS011;40775;51.448;4.742;2022-09-23T10:12:58;6.15;;;2.38;;
54881;SDS011;40775;51.448;4.742;2022-09-23T10:15:41;7.82;;;2.47;;
54881;SDS011;40775;51.448;4.742;2022-09-23T10:18:22;4.35;;;1.65;;
54881;SDS011;40775;51.448;4.742;2022-09-23T10:21:21;4.53;;;2.00;;
54881;SDS011;40775;51.448;4.742;2022-09-23T10:23:54;5.53;;;2.00;;
54881;SDS011;40775;51.448;4.742;2022-09-23T10:26:31;5.18;;;2.03;;
54881;SDS011;40775;51.448;4.742;2022-09-23T10:29:00;6.97;;;2.30;;
54881;SDS011;40775;51.448;4.742;2022-09-23T10:31:44;4.80;;;1.90;;
54881;SDS011;40775;51.448;4.742;2022-09-23T10:34:27;5.15;;;2.10;;
54881;SDS011;40775;51.448;4.742;2022-09-23T10:37:00;9.93;;;2.40;;
54881;SDS011;40775;51.448;4.742;2022-09-23T10:39:40;7.03;;;2.08;;
54881;SDS011;40775;51.448;4.742;2022-09-23T10:42:38;6.40;;;1.88;;
54881;SDS011;40775;51.448;4.742;2022-09-23T10:45:53;5.93;;;2.13;;
54881;SDS011;40775;51.448;4.742;2022-09-23T10:51:47;7.05;;;2.17;;
54881;SDS011;40775;51.448;4.742;2022-09-23T11:06:24;6.25;;;2.20;;
54881;SDS011;40775;51.448;4.742;2022-09-23T11:14:57;8.70;;;2.27;;
54881;SDS011;40775;51.448;4.742;2022-09-23T11:18:01;4.93;;;2.07;;
54881;SDS011;40775;51.448;4.742;2022-09-23T11:26:45;8.60;;;2.28;;
54881;SDS011;40775;51.448;4.742;2022-09-23T11:37:57;8.57;;;2.70;;
54881;SDS011;40775;51.448;4.742;2022-09-23T11:40:37;7.80;;;3.00;;
54881;SDS011;40775;51.448;4.742;2022-09-23T11:43:18;10.00;;;3.08;;
54881;SDS011;40775;51.448;4.742;2022-09-23T11:46:06;9.63;;;2.90;;
54881;SDS011;40775;51.448;4.742;2022-09-23T11:49:01;5.75;;;2.22;;
54881;SDS011;40775;51.448;4.742;2022-09-23T11:52:00;5.28;;;2.03;;
54881;SDS011;40775;51.448;4.742;2022-09-23T11:54:47;7.82;;;2.22;;
54881;SDS011;40775;51.448;4.742;2022-09-23T11:57:48;7.65;;;2.45;;
54881;SDS011;40775;51.448;4.742;2022-09-23T12:00:23;5.10;;;1.77;;
54881;SDS011;40775;51.448;4.742;2022-09-23T12:03:06;4.30;;;2.03;;
54881;SDS011;40775;51.448;4.742;2022-09-23T12:05:44;5.90;;;2.17;;
54881;SDS011;40775;51.448;4.742;2022-09-23T12:08:25;4.03;;;1.80;;
54881;SDS011;40775;51.448;4.742;2022-09-23T12:10:57;6.07;;;2.13;;
54881;SDS011;40775;51.448;4.742;2022-09-23T12:13:53;5.43;;;1.70;;
54881;SDS011;40775;51.448;4.742;2022-09-23T12:22:18;8.57;;;2.65;;
54881;SDS011;40775;51.448;4.742;2022-09-23T12:27:27;6.00;;;2.20;;
54881;SDS011;40775;51.448;4.742;2022-09-23T12:30:03;5.60;;;2.13;;
54881;SDS011;40775;51.448;4.742;2022-09-23T12:32:43;6.82;;;2.15;;
54881;SDS011;40775;51.448;4.742;2022-09-23T12:35:44;7.93;;;2.17;;
54881;SDS011;40775;51.448;4.742;2022-09-23T12:38:20;4.53;;;2.00;;
54881;SDS011;40775;51.448;4.742;2022-09-23T12:40:55;6.97;;;2.13;;
54881;SDS011;40775;51.448;4.742;2022-09-23T12:43:26;4.65;;;1.92;;
54881;SDS011;40775;51.448;4.742;2022-09-23T12:49:24;5.63;;;2.13;;
54881;SDS011;40775;51.448;4.742;2022-09-23T12:54:42;7.00;;;2.63;;
54881;SDS011;40775;51.448;4.742;2022-09-23T13:05:46;7.15;;;2.25;;
54881;SDS011;40775;51.448;4.742;2022-09-23T13:08:41;5.65;;;2.50;;
54881;SDS011;40775;51.448;4.742;2022-09-23T13:11:18;6.03;;;2.20;;
54881;SDS011;40775;51.448;4.742;2022-09-23T13:13:59;5.47;;;2.08;;
54881;SDS011;40775;51.448;4.742;2022-09-23T13:16:32;6.47;;;2.78;;
54881;SDS011;40775;51.448;4.742;2022-09-23T13:22:04;4.72;;;1.73;;
54881;SDS011;40775;51.448;4.742;2022-09-23T13:24:36;5.18;;;2.30;;
54881;SDS011;40775;51.448;4.742;2022-09-23T13:29:59;5.80;;;2.35;;
54881;SDS011;40775;51.448;4.742;2022-09-23T13:35:41;6.68;;;2.58;;
54881;SDS011;40775;51.448;4.742;2022-09-23T13:38:20;5.00;;;2.20;;
54881;SDS011;40775;51.448;4.742;2022-09-23T13:40:55;9.38;;;1.92;;
54881;SDS011;40775;51.448;4.742;2022-09-23T13:43:44;3.67;;;1.70;;
54881;SDS011;40775;51.448;4.742;2022-09-23T13:46:28;6.15;;;2.25;;
54881;SDS011;40775;51.448;4.742;2022-09-23T13:49:08;8.30;;;2.30;;
54881;SDS011;40775;51.448;4.742;2022-09-23T13:51:52;3.72;;;2.00;;
54881;SDS011;40775;51.448;4.742;2022-09-23T13:54:35;6.25;;;2.10;;
54881;SDS011;40775;51.448;4.742;2022-09-23T13:57:28;6.93;;;2.55;;
54881;SDS011;40775;51.448;4.742;2022-09-23T14:00:00;5.38;;;2.22;;
54881;SDS011;40775;51.448;4.742;2022-09-23T14:02:47;5.28;;;2.38;;
54881;SDS011;40775;51.448;4.742;2022-09-23T14:05:20;7.68;;;2.55;;
54881;SDS011;40775;51.448;4.742;2022-09-23T14:07:58;6.63;;;2.60;;
54881;SDS011;40775;51.448;4.742;2022-09-23T14:10:26;6.97;;;2.75;;
54881;SDS011;40775;51.448;4.742;2022-09-23T14:12:53;8.95;;;3.03;;
54881;SDS011;40775;51.448;4.742;2022-09-23T14:15:22;8.70;;;2.88;;
54881;SDS011;40775;51.448;4.742;2022-09-23T14:17:53;6.80;;;2.65;;
54881;SDS011;40775;51.448;4.742;2022-09-23T14:20:28;5.67;;;2.53;;
54881;SDS011;40775;51.448;4.742;2022-09-23T14:25:52;8.85;;;2.70;;
54881;SDS011;40775;51.448;4.742;2022-09-23T14:28:21;6.22;;;2.60;;
54881;SDS011;40775;51.448;4.742;2022-09-23T14:30:52;7.38;;;2.53;;
54881;SDS011;40775;51.448;4.742;2022-09-23T14:33:24;6.30;;;2.72;;
54881;SDS011;40775;51.448;4.742;2022-09-23T14:36:00;9.07;;;2.58;;
54881;SDS011;40775;51.448;4.742;2022-09-23T14:39:06;3.92;;;1.98;;
54881;SDS011;40775;51.448;4.742;2022-09-23T14:41:40;5.38;;;2.03;;
54881;SDS011;40775;51.448;4.742;2022-09-23T14:44:17;6.40;;;1.92;;
54881;SDS011;40775;51.448;4.742;2022-09-23T14:46:51;4.75;;;1.90;;
54881;SDS011;40775;51.448;4.742;2022-09-23T14:49:24;3.63;;;2.03;;
54881;SDS011;40775;51.448;4.742;2022-09-23T14:51:53;3.90;;;1.83;;
54881;SDS011;40775;51.448;4.742;2022-09-23T14:56:53;5.22;;;2.00;;
54881;SDS011;40775;51.448;4.742;2022-09-23T14:59:30;4.80;;;1.77;;
54881;SDS011;40775;51.448;4.742;2022-09-23T15:02:26;3.95;;;1.85;;
54881;SDS011;40775;51.448;4.742;2022-09-23T15:05:17;4.25;;;1.67;;
54881;SDS011;40775;51.448;4.742;2022-09-23T15:07:50;3.22;;;1.50;;
54881;SDS011;40775;51.448;4.742;2022-09-23T15:10:30;4.10;;;1.60;;
54881;SDS011;40775;51.448;4.742;2022-09-23T15:13:26;3.40;;;1.67;;
54881;SDS011;40775;51.448;4.742;2022-09-23T15:15:55;3.45;;;1.85;;
54881;SDS011;40775;51.448;4.742;2022-09-23T15:18:26;3.03;;;1.90;;
54881;SDS011;40775;51.448;4.742;2022-09-23T15:21:06;4.70;;;1.73;;
54881;SDS011;40775;51.448;4.742;2022-09-23T15:26:10;2.92;;;1.83;;
54881;SDS011;40775;51.448;4.742;2022-09-23T15:28:42;3.70;;;1.60;;
54881;SDS011;40775;51.448;4.742;2022-09-23T15:31:11;2.90;;;1.73;;
54881;SDS011;40775;51.448;4.742;2022-09-23T15:33:40;4.63;;;2.30;;
54881;SDS011;40775;51.448;4.742;2022-09-23T15:36:11;9.73;;;4.35;;
54881;SDS011;40775;51.448;4.742;2022-09-23T15:38:47;5.05;;;1.92;;
54881;SDS011;40775;51.448;4.742;2022-09-23T15:41:15;3.37;;;1.60;;
54881;SDS011;40775;51.448;4.742;2022-09-23T15:43:45;2.28;;;1.10;;
54881;SDS011;40775;51.448;4.742;2022-09-23T15:49:01;1.75;;;0.90;;
54881;SDS011;40775;51.448;4.742;2022-09-23T15:51:33;2.27;;;0.80;;
54881;SDS011;40775;51.448;4.742;2022-09-23T15:54:02;2.20;;;0.80;;
54881;SDS011;40775;51.448;4.742;2022-09-23T15:56:34;1.92;;;0.52;;
54881;SDS011;40775;51.448;4.742;2022-09-23T15:59:01;1.08;;;0.55;;
54881;SDS011;40775;51.448;4.742;2022-09-23T16:01:32;1.30;;;0.70;;
54881;SDS011;40775;51.448;4.742;2022-09-23T16:04:02;1.70;;;0.87;;
54881;SDS011;40775;51.448;4.742;2022-09-23T16:06:30;3.88;;;2.08;;
54881;SDS011;40775;51.448;4.742;2022-09-23T16:09:00;5.85;;;2.20;;
54881;SDS011;40775;51.448;4.742;2022-09-23T16:11:28;6.30;;;2.47;;
54881;SDS011;40775;51.448;4.742;2022-09-23T16:13:59;6.38;;;2.30;;
54881;SDS011;40775;51.448;4.742;2022-09-23T16:16:26;4.05;;;1.83;;
54881;SDS011;40775;51.448;4.742;2022-09-23T16:18:54;4.82;;;1.92;;
54881;SDS011;40775;51.448;4.742;2022-09-23T16:21:23;3.60;;;1.77;;
54881;SDS011;40775;51.448;4.742;2022-09-23T16:23:55;3.88;;;1.88;;
54881;SDS011;40775;51.448;4.742;2022-09-23T16:26:28;3.13;;;1.77;;
54881;SDS011;40775;51.448;4.742;2022-09-23T16:29:05;3.30;;;1.90;;
54881;SDS011;40775;51.448;4.742;2022-09-23T16:31:35;2.80;;;1.80;;
54881;SDS011;40775;51.448;4.742;2022-09-23T16:34:03;3.72;;;1.70;;
54881;SDS011;40775;51.448;4.742;2022-09-23T16:36:31;3.53;;;1.95;;
54881;SDS011;40775;51.448;4.742;2022-09-23T16:39:09;3.13;;;1.80;;
54881;SDS011;40775;51.448;4.742;2022-09-23T16:41:38;4.30;;;1.75;;
54881;SDS011;40775;51.448;4.742;2022-09-23T16:44:08;4.40;;;2.00;;
54881;SDS011;40775;51.448;4.742;2022-09-23T16:46:37;3.80;;;2.00;;
54881;SDS011;40775;51.448;4.742;2022-09-23T16:49:08;3.83;;;1.80;;
54881;SDS011;40775;51.448;4.742;2022-09-23T16:51:39;4.35;;;1.90;;
54881;SDS011;40775;51.448;4.742;2022-09-23T16:54:07;4.10;;;1.88;;
54881;SDS011;40775;51.448;4.742;2022-09-23T16:56:37;3.00;;;1.75;;
54881;SDS011;40775;51.448;4.742;2022-09-23T16:59:10;4.47;;;2.00;;
54881;SDS011;40775;51.448;4.742;2022-09-23T17:01:41;4.43;;;2.00;;
54881;SDS011;40775;51.448;4.742;2022-09-23T17:04:27;3.72;;;1.98;;
54881;SDS011;40775;51.448;4.742;2022-09-23T17:06:54;4.30;;;2.10;;
54881;SDS011;40775;51.448;4.742;2022-09-23T17:09:23;4.25;;;2.17;;
54881;SDS011;40775;51.448;4.742;2022-09-23T17:14:34;3.22;;;1.70;;
54881;SDS011;40775;51.448;4.742;2022-09-23T17:17:01;3.53;;;1.90;;
54881;SDS011;40775;51.448;4.742;2022-09-23T17:19:28;3.95;;;2.00;;
54881;SDS011;40775;51.448;4.742;2022-09-23T17:21:55;3.45;;;1.60;;
54881;SDS011;40775;51.448;4.742;2022-09-23T17:24:22;4.63;;;2.13;;
54881;SDS011;40775;51.448;4.742;2022-09-23T17:26:50;5.32;;;2.03;;
54881;SDS011;40775;51.448;4.742;2022-09-23T17:29:18;5.20;;;2.20;;
54881;SDS011;40775;51.448;4.742;2022-09-23T17:31:45;3.20;;;1.65;;
54881;SDS011;40775;51.448;4.742;2022-09-23T17:34:13;5.05;;;2.20;;
54881;SDS011;40775;51.448;4.742;2022-09-23T17:36:40;4.28;;;1.90;;
54881;SDS011;40775;51.448;4.742;2022-09-23T17:39:07;4.32;;;2.30;;
54881;SDS011;40775;51.448;4.742;2022-09-23T17:41:34;5.05;;;2.47;;
54881;SDS011;40775;51.448;4.742;2022-09-23T17:44:02;5.93;;;2.47;;
54881;SDS011;40775;51.448;4.742;2022-09-23T17:46:29;7.03;;;2.42;;
54881;SDS011;40775;51.448;4.742;2022-09-23T17:48:57;4.47;;;2.50;;
54881;SDS011;40775;51.448;4.742;2022-09-23T17:51:24;5.75;;;2.50;;
54881;SDS011;40775;51.448;4.742;2022-09-23T17:53:52;5.57;;;2.60;;
54881;SDS011;40775;51.448;4.742;2022-09-23T17:56:23;6.72;;;2.50;;
54881;SDS011;40775;51.448;4.742;2022-09-23T17:58:52;5.07;;;2.60;;
54881;SDS011;40775;51.448;4.742;2022-09-23T18:01:21;4.75;;;2.30;;
54881;SDS011;40775;51.448;4.742;2022-09-23T18:03:57;5.32;;;2.58;;
54881;SDS011;40775;51.448;4.742;2022-09-23T18:06:27;6.53;;;3.00;;
54881;SDS011;40775;51.448;4.742;2022-09-23T18:09:01;5.10;;;2.38;;
54881;SDS011;40775;51.448;4.742;2022-09-23T18:11:31;5.80;;;2.58;;
54881;SDS011;40775;51.448;4.742;2022-09-23T18:14:17;5.05;;;2.72;;